Date,TemperatureHighF,TemperatureAvgF,TemperatureLowF,DewpointHighF,DewpointAvgF,DewpointLowF,HumidityHigh,HumidityAvg,HumidityLow,PressureMaxIn,PressureMinIn,WindSpeedMaxMPH,WindSpeedAvgMPH,GustSpeedMaxMPH,PrecipitationSumIn
2013-11-1,66.6,57.6,49.1,60.2,51.8,39.4,99,82,56,29.35,28.85,25,7,25,0.57
2013-11-2,49.1,42.6,33.1,40.2,35.8,19.5,90,77,54,29.76,29.35,11,1,11,0.18
2013-11-3,46.4,33.0,25.3,29.4,17.7,14.1,73,54,30,30.31,29.75,10,1,10,0.00
2013-11-4,48.6,32.1,28.0,22.9,16.3,-18.7,77,53,10,30.50,30.31,9,1,9,0.00
2013-11-5,47.8,36.2,30.6,34.0,25.8,20.2,77,66,48,30.40,30.11,6,0,6,0.00
2013-11-6,52.0,40.5,39.6,48.4,34.0,33.0,88,77,76,30.12,29.45,5,0,5,0.14
2013-11-7,95.9,48.4,32.4,86.0,38.2,-18.0,91,69,10,29.62,29.35,15,7,15,0.07
2013-11-8,40.6,37.4,35.4,28.1,26.6,24.2,74,65,57,29.83,29.57,15,6,15,0.00
2013-11-9,41.2,38.4,34.0,26.6,24.9,23.4,71,58,51,29.93,29.63,14,3,14,0.00
2013-11-10,42.8,39.2,37.2,39.8,36.2,24.9,93,89,53,29.64,29.41,11,1,11,0.37
2013-11-11,39.4,35.7,28.4,36.5,29.1,-16.9,92,77,10,29.83,29.52,17,4,17,0.22
2013-11-12,32.9,27.7,22.8,21.4,17.0,14.4,73,64,55,30.03,29.72,1,0,1,0.00
2013-11-13,35.1,26.6,19.6,26.4,16.9,10.2,75,67,52,30.08,29.69,13,2,13,0.00
2013-11-14,47.8,38.5,33.4,33.5,29.0,-13.4,82,69,57,29.73,29.65,14,3,14,0.00
2013-11-15,51.6,44.4,34.9,33.9,31.3,27.8,82,61,49,29.89,29.71,8,1,8,0.00
2013-11-16,62.8,43.1,32.5,37.7,31.5,27.6,85,65,37,30.01,29.88,6,0,6,0.00
2013-11-17,55.4,44.7,33.1,53.5,40.1,27.5,94,84,73,29.96,29.25,9,1,9,0.21
2013-11-18,57.0,49.4,35.4,54.4,40.6,18.7,92,72,54,29.36,29.02,27,8,27,0.24
2013-11-19,41.9,32.7,27.0,27.8,18.8,5.6,69,56,45,30.17,29.36,27,7,27,0.00
2013-11-20,43.5,27.5,19.8,21.8,16.8,13.0,81,65,39,30.42,30.17,5,1,5,0.00
2013-11-21,39.9,30.5,21.4,27.2,23.1,16.8,84,74,59,30.40,30.09,6,1,6,0.00
2013-11-22,40.1,36.5,33.1,37.4,32.0,26.4,94,84,74,30.09,29.54,18,1,18,0.21
2013-11-23,35.6,28.1,20.7,30.7,19.0,8.7,82,68,58,29.75,29.57,18,7,18,0.00
2013-11-24,32.0,18.1,11.3,9.4,3.7,-23.2,64,53,33,30.03,29.65,27,9,27,0.00
2013-11-25,32.7,19.6,9.3,21.5,8.6,0.6,74,62,44,30.14,29.81,17,4,18,0.00
2013-11-26,38.5,34.9,32.5,29.4,26.0,21.1,83,70,58,29.93,29.81,14,2,14,0.00
2013-11-27,36.1,32.9,25.5,34.6,30.7,19.6,95,91,78,29.69,29.14,6,1,6,0.31
2013-11-28,25.3,19.3,14.7,19.1,10.5,6.1,83,68,56,30.19,29.28,12,2,12,0.01
2013-11-29,24.6,14.3,7.0,13.1,7.1,1.9,83,73,55,30.54,30.19,11,0,11,0.00
2013-11-30,23.4,14.2,4.8,16.7,9.2,0.6,85,80,72,30.56,30.03,0,0,0,0.00